createdAt,value
2024-03-02T00:03:04.666Z,93.70
2024-03-02T00:06:31.551Z,90.40
2024-03-02T00:09:58.731Z,90.00
2024-03-02T00:13:25.846Z,86.40
2024-03-02T00:16:54.713Z,86.90
2024-03-02T00:20:24.691Z,88.00
2024-03-02T00:23:53.845Z,89.40
2024-03-02T00:27:22.239Z,92.80
2024-03-02T00:31:00.477Z,93.00
2024-03-02T00:34:29.033Z,95.50
2024-03-02T00:37:55.264Z,93.30
2024-03-02T00:41:26.657Z,91.90
2024-03-02T00:44:53.283Z,93.50
2024-03-02T00:48:20.856Z,92.50
2024-03-02T00:51:51.353Z,90.00
2024-03-02T00:55:18.025Z,85.90
2024-03-02T00:58:44.157Z,89.20
2024-03-02T01:02:13.151Z,84.20
2024-03-02T01:05:39.590Z,79.70
2024-03-02T01:09:06.344Z,82.30
2024-03-02T01:12:33.397Z,78.30
2024-03-02T01:15:59.982Z,78.60
2024-03-02T01:19:28.283Z,80.10
2024-03-02T01:22:54.881Z,81.00
2024-03-02T01:26:22.027Z,81.80
2024-03-02T01:29:48.159Z,79.80
2024-03-02T01:33:14.071Z,82.90
2024-03-02T01:36:40.784Z,78.70
2024-03-02T01:40:10.521Z,79.00
2024-03-02T01:43:40.376Z,78.00
2024-03-02T01:47:08.486Z,78.00
2024-03-02T01:50:35.522Z,81.90
2024-03-02T01:54:03.985Z,77.60
2024-03-02T01:57:30.750Z,80.60
2024-03-02T02:00:57.225Z,77.80
2024-03-02T02:04:29.160Z,79.80
2024-03-02T02:07:54.974Z,76.80
2024-03-02T02:11:21.344Z,75.30
2024-03-02T02:14:52.569Z,73.70
2024-03-02T02:18:18.506Z,73.10
2024-03-02T02:21:47.364Z,67.90
2024-03-02T02:25:13.918Z,68.40
2024-03-02T02:28:40.221Z,61.90
2024-03-02T02:32:06.842Z,68.70
2024-03-02T02:35:32.619Z,66.00
2024-03-02T02:38:59.820Z,63.60
2024-03-02T02:42:25.932Z,65.10
2024-03-02T02:45:52.550Z,67.30
2024-03-02T02:49:19.107Z,63.50
2024-03-02T02:52:46.194Z,59.70
2024-03-02T02:56:12.218Z,57.90
2024-03-02T02:59:39.490Z,61.50
2024-03-02T03:03:05.982Z,62.60
2024-03-02T03:06:31.871Z,61.70
2024-03-02T03:09:58.413Z,60.50
2024-03-02T03:13:25.271Z,62.90
2024-03-02T03:16:52.161Z,57.30
2024-03-02T03:20:18.459Z,58.70
2024-03-02T03:23:44.327Z,58.50
2024-03-02T03:27:10.458Z,56.80
2024-03-02T03:30:36.522Z,55.60
2024-03-02T03:34:02.340Z,54.10
2024-03-02T03:37:34.700Z,56.20
2024-03-02T03:41:01.962Z,51.00
2024-03-02T03:44:29.210Z,49.10
2024-03-02T03:47:55.385Z,48.60
2024-03-02T03:51:21.202Z,45.20
2024-03-02T03:54:47.618Z,47.20
2024-03-02T03:58:21.339Z,45.70
2024-03-02T04:01:49.468Z,43.90
2024-03-02T04:05:16.147Z,44.50
2024-03-02T04:08:43.726Z,48.40
2024-03-02T04:12:10.565Z,44.20
2024-03-02T04:15:36.823Z,42.30
2024-03-02T04:19:03.330Z,44.30
2024-03-02T04:22:29.727Z,46.50
2024-03-02T04:25:55.717Z,43.80
2024-03-02T04:29:21.944Z,40.10
2024-03-02T04:32:49.162Z,42.70
2024-03-02T04:36:15.338Z,44.30
2024-03-02T04:39:41.599Z,43.10
2024-03-02T04:43:09.860Z,44.90
2024-03-02T04:46:37.115Z,47.50
2024-03-02T04:50:03.676Z,53.90
2024-03-02T04:53:29.800Z,48.40
2024-03-02T04:56:56.130Z,46.50
2024-03-02T05:00:22.286Z,46.60
2024-03-02T05:03:48.796Z,48.10
2024-03-02T05:07:15.320Z,46.70
2024-03-02T05:10:41.103Z,43.70
2024-03-02T05:14:07.481Z,42.20
2024-03-02T05:17:34.077Z,41.40
2024-03-02T05:21:00.903Z,44.40
2024-03-02T05:24:28.806Z,44.20
2024-03-02T05:27:55.382Z,43.40
2024-03-02T05:31:24.525Z,42.20
2024-03-02T05:34:52.189Z,45.20
2024-03-02T05:38:18.634Z,42.60
2024-03-02T05:41:44.770Z,41.90
2024-03-02T05:45:12.309Z,42.80
2024-03-02T05:48:38.400Z,45.80
2024-03-02T05:52:04.650Z,44.70
2024-03-02T05:55:31.094Z,48.00
2024-03-02T05:59:10.050Z,44.70
2024-03-02T06:02:40.005Z,45.70
2024-03-02T06:06:07.833Z,52.30
2024-03-02T06:09:33.797Z,46.10
2024-03-02T06:13:00.368Z,48.20
2024-03-02T06:16:26.598Z,48.50
2024-03-02T06:19:52.938Z,48.60
2024-03-02T06:23:20.269Z,41.70
2024-03-02T06:26:46.304Z,45.10
2024-03-02T06:30:14.762Z,42.40
2024-03-02T06:33:41.652Z,42.60
2024-03-02T06:37:08.554Z,47.30
2024-03-02T06:40:35.557Z,44.70
2024-03-02T06:44:01.826Z,47.10
2024-03-02T06:47:28.021Z,41.70
2024-03-02T06:50:54.564Z,44.80
2024-03-02T06:54:20.404Z,40.80
2024-03-02T06:57:46.604Z,42.60
2024-03-02T07:01:12.857Z,42.50
2024-03-02T07:04:39.405Z,43.20
2024-03-02T07:08:06.642Z,46.80
2024-03-02T07:11:33.712Z,44.80
2024-03-02T07:15:20.052Z,50.70
2024-03-02T07:18:53.560Z,51.00
2024-03-02T07:22:20.187Z,48.20
2024-03-02T07:29:15.418Z,49.70
2024-03-02T07:32:43.370Z,45.60
2024-03-02T07:36:12.124Z,46.40
2024-03-02T07:39:38.463Z,52.80
2024-03-02T07:43:06.999Z,47.10
2024-03-02T07:46:36.009Z,45.90
2024-03-02T07:50:02.857Z,42.60
2024-03-02T07:53:28.892Z,49.60
2024-03-02T07:56:55.121Z,47.40
2024-03-02T08:00:21.691Z,46.80
2024-03-02T08:03:49.448Z,51.80
2024-03-02T08:07:16.279Z,44.70
2024-03-02T08:10:42.834Z,54.40
2024-03-02T08:14:09.683Z,47.70
2024-03-02T08:17:38.224Z,52.70
2024-03-02T08:21:05.935Z,54.30
2024-03-02T08:24:34.773Z,46.50
2024-03-02T08:28:04.266Z,48.90
2024-03-02T08:31:30.566Z,49.80
2024-03-02T08:34:57.026Z,48.50
2024-03-02T08:38:23.353Z,45.80
2024-03-02T08:41:50.266Z,48.50
2024-03-02T08:45:18.789Z,45.90
2024-03-02T08:48:45.518Z,46.60
2024-03-02T08:52:11.688Z,44.30
2024-03-02T08:55:37.701Z,47.80
2024-03-02T08:59:03.960Z,47.90
2024-03-02T09:02:30.495Z,45.60
2024-03-02T09:05:56.600Z,44.90
2024-03-02T09:09:23.285Z,43.20
2024-03-02T09:12:49.271Z,46.00
2024-03-02T09:16:16.180Z,48.80
2024-03-02T09:19:42.390Z,43.50
2024-03-02T09:23:08.911Z,46.30
2024-03-02T09:26:35.212Z,46.10
2024-03-02T09:30:01.589Z,46.90
2024-03-02T09:33:28.947Z,43.80
2024-03-02T09:36:56.178Z,47.80
2024-03-02T09:40:26.937Z,46.60
2024-03-02T09:43:55.444Z,43.00
2024-03-02T09:47:21.598Z,43.80
2024-03-02T09:50:48.386Z,46.80
2024-03-02T09:54:21.935Z,41.10
2024-03-02T09:57:50.024Z,45.60
2024-03-02T10:01:16.527Z,42.00
2024-03-02T10:04:42.696Z,44.10
2024-03-02T10:08:09.493Z,38.30
2024-03-02T10:11:38.813Z,48.50
2024-03-02T10:15:11.298Z,42.50
2024-03-02T10:18:37.932Z,41.50
2024-03-02T10:22:05.308Z,43.20
2024-03-02T10:32:31.638Z,43.60
2024-03-02T10:35:59.090Z,48.60
2024-03-02T10:39:26.803Z,41.00
2024-03-02T10:42:54.094Z,39.60
2024-03-02T10:46:21.295Z,43.50
2024-03-02T10:49:49.385Z,39.40
2024-03-02T10:53:15.619Z,40.90
2024-03-02T10:56:43.805Z,40.90
2024-03-02T11:00:16.155Z,38.60
2024-03-02T11:03:44.089Z,41.60
2024-03-02T11:07:12.182Z,44.50
2024-03-02T11:10:46.056Z,36.90
2024-03-02T11:14:16.307Z,40.30
2024-03-02T11:17:43.705Z,45.10
2024-03-02T11:21:10.948Z,43.00
2024-03-02T11:24:39.004Z,52.90
2024-03-02T11:28:07.192Z,42.20
2024-03-02T11:32:01.861Z,40.70
2024-03-02T11:35:30.093Z,38.90
2024-03-02T11:38:56.711Z,44.30
2024-03-02T11:42:23.560Z,40.90
2024-03-02T11:45:49.568Z,38.50
2024-03-02T11:49:17.962Z,38.30
2024-03-02T11:52:44.693Z,40.50
2024-03-02T11:56:13.064Z,40.00
2024-03-02T11:59:39.397Z,63.50
2024-03-02T12:03:08.627Z,46.40
2024-03-02T12:06:35.597Z,45.10
2024-03-02T12:10:05.178Z,37.60
2024-03-02T12:13:32.725Z,43.80
2024-03-02T12:17:00.055Z,40.50
2024-03-02T12:20:26.932Z,41.00
2024-03-02T12:23:53.080Z,42.10
2024-03-02T12:27:22.585Z,41.10
2024-03-02T12:30:51.348Z,37.90
2024-03-02T12:34:19.897Z,38.10
2024-03-02T12:37:50.181Z,43.30
2024-03-02T12:41:19.688Z,47.20
2024-03-02T12:44:47.944Z,53.80
2024-03-02T12:48:15.829Z,48.90
2024-03-02T12:51:43.212Z,54.10
2024-03-02T12:55:12.721Z,53.10
2024-03-02T12:58:43.983Z,54.60
2024-03-02T13:02:11.905Z,54.40
2024-03-02T13:05:38.001Z,49.40
2024-03-02T13:09:05.575Z,58.40
2024-03-02T13:12:32.815Z,64.00
2024-03-02T13:16:00.474Z,59.40
2024-03-02T13:19:26.733Z,65.30
2024-03-02T13:22:53.377Z,61.70
2024-03-02T13:26:22.380Z,64.60
2024-03-02T13:29:49.743Z,63.90
2024-03-02T13:33:16.508Z,63.30
2024-03-02T13:36:44.527Z,63.80
2024-03-02T13:40:15.151Z,61.80
2024-03-02T13:43:41.645Z,64.20
2024-03-02T13:47:09.304Z,66.10
2024-03-02T13:50:36.369Z,67.90
2024-03-02T13:54:04.471Z,64.40
2024-03-02T13:57:32.205Z,67.40
2024-03-02T14:00:58.965Z,64.80
2024-03-02T14:04:25.551Z,66.30
2024-03-02T14:07:51.665Z,66.60
2024-03-02T14:11:18.982Z,69.10
2024-03-02T14:14:47.591Z,64.70
2024-03-02T14:18:14.849Z,68.10
2024-03-02T14:21:41.820Z,67.60
2024-03-02T14:25:09.453Z,62.70
2024-03-02T14:32:10.220Z,61.50
2024-03-02T14:35:36.369Z,65.70
2024-03-02T14:39:03.331Z,68.60
2024-03-02T14:42:32.936Z,65.10
2024-03-02T14:46:00.633Z,62.40
2024-03-02T14:49:29.707Z,62.90
2024-03-02T14:52:58.571Z,64.60
2024-03-02T14:56:25.150Z,62.80
2024-03-02T14:59:52.004Z,63.90
2024-03-02T15:03:18.146Z,59.00
2024-03-02T15:06:46.826Z,63.50
2024-03-02T15:10:13.074Z,61.80
2024-03-02T15:13:39.095Z,63.50
2024-03-02T15:17:05.518Z,65.90
2024-03-02T15:20:31.743Z,67.50
2024-03-02T15:23:58.932Z,59.10
2024-03-02T15:27:26.555Z,63.30
2024-03-02T15:30:55.815Z,64.20
2024-03-02T15:34:23.562Z,60.90
2024-03-02T15:37:49.715Z,61.90
2024-03-02T15:41:16.248Z,61.00
2024-03-02T15:44:45.261Z,65.10
2024-03-02T15:48:11.787Z,62.20
2024-03-02T15:51:41.869Z,58.80
2024-03-02T15:55:09.721Z,59.60
2024-03-02T15:58:37.484Z,57.80
2024-03-02T16:02:05.069Z,56.20
2024-03-02T16:05:32.284Z,57.30
2024-03-02T16:09:01.057Z,60.80
2024-03-02T16:12:27.406Z,58.50
2024-03-02T16:15:53.825Z,62.20
2024-03-02T16:19:29.229Z,60.30
2024-03-02T16:23:03.150Z,56.20
2024-03-02T16:26:32.548Z,61.60
2024-03-02T16:30:00.205Z,54.50
2024-03-02T16:33:27.177Z,62.60
2024-03-02T16:36:55.293Z,62.90
2024-03-02T16:40:22.082Z,60.60
2024-03-02T16:43:48.910Z,58.00
2024-03-02T16:47:16.666Z,58.70
2024-03-02T16:50:42.541Z,52.50
2024-03-02T16:54:08.540Z,58.00
2024-03-02T16:57:37.372Z,60.50
2024-03-02T17:01:04.622Z,54.30
2024-03-02T17:04:31.361Z,55.20
2024-03-02T17:07:59.498Z,61.00
2024-03-02T17:11:26.384Z,61.20
2024-03-02T17:14:52.524Z,55.80
2024-03-02T17:18:19.699Z,64.50
2024-03-02T17:21:45.721Z,54.90
2024-03-02T17:25:13.670Z,61.50
2024-03-02T17:28:39.798Z,62.80
2024-03-02T17:32:06.479Z,61.00
2024-03-02T17:35:33.507Z,61.80
2024-03-02T17:39:00.169Z,67.80
2024-03-02T17:42:30.559Z,60.10
2024-03-02T17:45:59.629Z,61.30
2024-03-02T17:49:25.741Z,60.40
2024-03-02T17:52:52.099Z,59.70
2024-03-02T17:56:18.707Z,53.00
2024-03-02T17:59:45.462Z,56.10
2024-03-02T18:03:12.140Z,53.10
2024-03-02T18:06:38.311Z,57.80
2024-03-02T18:10:05.101Z,53.70
2024-03-02T18:13:34.359Z,57.60
2024-03-02T18:17:00.841Z,51.30
2024-03-02T18:20:27.581Z,55.60
2024-03-02T18:23:53.923Z,57.10
2024-03-02T18:27:22.996Z,51.80
2024-03-02T18:30:48.994Z,58.00
2024-03-02T18:34:15.487Z,53.30
2024-03-02T18:37:44.031Z,55.50
2024-03-02T18:41:10.128Z,59.10
2024-03-02T18:44:36.349Z,58.10
2024-03-02T18:48:03.788Z,58.20
2024-03-02T18:51:30.860Z,61.00
2024-03-02T18:54:59.680Z,60.00
2024-03-02T18:58:26.943Z,58.40
2024-03-02T19:01:53.487Z,59.50
2024-03-02T19:05:19.927Z,56.60
2024-03-02T19:08:46.174Z,53.90
2024-03-02T19:12:12.708Z,61.10
2024-03-02T19:15:38.766Z,55.40
2024-03-02T19:19:05.303Z,59.90
2024-03-02T19:22:34.442Z,58.80
2024-03-02T19:26:00.932Z,59.20
2024-03-02T19:29:30.123Z,63.50
2024-03-02T19:32:56.052Z,61.20
2024-03-02T19:36:22.522Z,55.80
2024-03-02T19:39:48.689Z,60.30
2024-03-02T19:43:19.024Z,60.10
2024-03-02T19:46:48.596Z,57.40
2024-03-02T19:50:15.719Z,56.00
2024-03-02T19:53:42.212Z,64.10
2024-03-02T19:57:08.473Z,61.40
2024-03-02T20:00:40.033Z,61.70
2024-03-02T20:04:06.737Z,62.50
2024-03-02T20:07:33.753Z,63.10
2024-03-02T20:10:59.757Z,62.80
2024-03-02T20:14:27.734Z,62.90
2024-03-02T20:17:56.090Z,57.50
2024-03-02T20:21:22.505Z,57.60
2024-03-02T20:24:49.390Z,61.90
2024-03-02T20:28:18.614Z,62.10
2024-03-02T20:31:51.542Z,66.10
2024-03-02T20:35:18.398Z,65.30
2024-03-02T20:38:44.405Z,69.00
2024-03-02T20:42:10.910Z,67.30
2024-03-02T20:45:39.892Z,70.60
2024-03-02T20:49:06.880Z,70.40
2024-03-02T20:52:33.447Z,69.20
2024-03-02T20:55:59.604Z,72.40
2024-03-02T20:59:28.435Z,72.10
2024-03-02T21:02:54.423Z,70.60
2024-03-02T21:06:21.021Z,78.10
2024-03-02T21:09:47.284Z,69.50
2024-03-02T21:13:13.915Z,74.40
2024-03-02T21:16:42.504Z,70.60
2024-03-02T21:20:10.998Z,67.30
2024-03-02T21:23:37.351Z,71.40
2024-03-02T21:27:04.314Z,65.70
2024-03-02T21:30:32.346Z,70.80
2024-03-02T21:33:58.760Z,69.10
2024-03-02T21:37:25.841Z,68.30
2024-03-02T21:40:52.620Z,73.80
2024-03-02T21:44:19.600Z,76.60
2024-03-02T21:47:46.677Z,66.80
2024-03-02T21:51:18.651Z,67.20
2024-03-02T21:54:45.319Z,67.00
2024-03-02T21:58:13.751Z,70.10
2024-03-02T22:01:40.598Z,72.60
2024-03-02T22:05:08.563Z,77.50
2024-03-02T22:08:34.703Z,74.30
2024-03-02T22:12:02.548Z,80.60
2024-03-02T22:15:29.111Z,76.30
2024-03-02T22:18:56.646Z,75.80
2024-03-02T22:22:22.843Z,72.70
2024-03-02T22:25:49.712Z,70.80
2024-03-02T22:29:15.873Z,68.30
2024-03-02T22:32:41.949Z,69.30
2024-03-02T22:36:10.281Z,64.70
2024-03-02T22:39:36.169Z,69.10
2024-03-02T22:43:03.221Z,70.40
2024-03-02T22:46:29.726Z,69.50
2024-03-02T22:49:57.281Z,72.40
2024-03-02T22:53:23.634Z,67.50
2024-03-02T22:56:50.179Z,69.90
2024-03-02T23:00:31.303Z,66.10
2024-03-02T23:03:57.870Z,70.20
2024-03-02T23:07:24.272Z,67.80
2024-03-02T23:10:50.531Z,70.80
2024-03-02T23:14:16.613Z,69.90
2024-03-02T23:17:43.258Z,71.10
2024-03-02T23:21:10.016Z,68.00
2024-03-02T23:24:35.814Z,69.90
2024-03-02T23:28:03.356Z,73.90
2024-03-02T23:31:30.347Z,65.50
2024-03-02T23:34:56.894Z,69.90
2024-03-02T23:38:22.932Z,67.30
2024-03-02T23:41:51.375Z,70.00
2024-03-02T23:45:17.857Z,71.70
2024-03-02T23:48:48.554Z,66.70
2024-03-02T23:52:16.700Z,67.10
2024-03-02T23:55:51.829Z,68.50
2024-03-02T23:59:19.800Z,67.60
